sensor_id;sensor_type;location;lat;lon;timestamp;temperature;humidity
4451;DHT22;2238;50.180;9.230;2022-10-26T00:01:15;13.90;99.90
4451;DHT22;2238;50.180;9.230;2022-10-26T00:04:16;13.10;99.90
4451;DHT22;2238;50.180;9.230;2022-10-26T00:07:16;12.40;99.90
4451;DHT22;2238;50.180;9.230;2022-10-26T00:10:17;12.40;99.90
4451;DHT22;2238;50.180;9.230;2022-10-26T00:13:21;12.70;99.90
4451;DHT22;2238;50.180;9.230;2022-10-26T00:16:24;12.30;99.90
4451;DHT22;2238;50.180;9.230;2022-10-26T00:19:26;12.30;99.90
4451;DHT22;2238;50.180;9.230;2022-10-26T00:22:27;12.50;99.90
4451;DHT22;2238;50.180;9.230;2022-10-26T00:25:27;12.40;99.90
4451;DHT22;2238;50.180;9.230;2022-10-26T00:28:28;13.90;99.90
4451;DHT22;2238;50.180;9.230;2022-10-26T00:31:29;13.90;99.90
4451;DHT22;2238;50.180;9.230;2022-10-26T00:34:29;12.60;99.90
4451;DHT22;2238;50.180;9.230;2022-10-26T00:37:31;12.50;99.90
4451;DHT22;2238;50.180;9.230;2022-10-26T00:40:31;13.20;99.90
4451;DHT22;2238;50.180;9.230;2022-10-26T00:43:34;12.50;99.90
4451;DHT22;2238;50.180;9.230;2022-10-26T00:46:36;12.50;99.90
4451;DHT22;2238;50.180;9.230;2022-10-26T00:49:37;14.90;99.90
4451;DHT22;2238;50.180;9.230;2022-10-26T00:52:38;12.60;99.90
4451;DHT22;2238;50.180;9.230;2022-10-26T00:55:43;12.60;99.90
4451;DHT22;2238;50.180;9.230;2022-10-26T00:58:45;13.60;99.90
4451;DHT22;2238;50.180;9.230;2022-10-26T01:01:46;12.60;99.90
4451;DHT22;2238;50.180;9.230;2022-10-26T01:04:49;13.80;99.90
4451;DHT22;2238;50.180;9.230;2022-10-26T01:07:50;12.60;99.90
4451;DHT22;2238;50.180;9.230;2022-10-26T01:10:51;14.00;99.90
4451;DHT22;2238;50.180;9.230;2022-10-26T01:13:52;12.70;99.90
4451;DHT22;2238;50.180;9.230;2022-10-26T01:17:17;12.60;99.90
4451;DHT22;2238;50.180;9.230;2022-10-26T01:20:44;12.60;99.90
4451;DHT22;2238;50.180;9.230;2022-10-26T01:24:20;12.60;99.90
4451;DHT22;2238;50.180;9.230;2022-10-26T01:27:47;12.80;99.90
4451;DHT22;2238;50.180;9.230;2022-10-26T01:30:50;12.80;99.90
4451;DHT22;2238;50.180;9.230;2022-10-26T01:33:57;12.80;99.90
4451;DHT22;2238;50.180;9.230;2022-10-26T01:37:11;14.60;99.90
4451;DHT22;2238;50.180;9.230;2022-10-26T01:40:37;12.90;99.90
4451;DHT22;2238;50.180;9.230;2022-10-26T01:43:43;14.20;99.90
4451;DHT22;2238;50.180;9.230;2022-10-26T01:46:47;12.80;99.90
4451;DHT22;2238;50.180;9.230;2022-10-26T01:49:54;13.90;99.90
4451;DHT22;2238;50.180;9.230;2022-10-26T01:52:55;14.40;99.90
4451;DHT22;2238;50.180;9.230;2022-10-26T01:55:57;12.60;99.90
4451;DHT22;2238;50.180;9.230;2022-10-26T02:05:30;12.40;99.90
4451;DHT22;2238;50.180;9.230;2022-10-26T02:11:45;12.40;99.90
4451;DHT22;2238;50.180;9.230;2022-10-26T02:15:15;12.50;99.90
4451;DHT22;2238;50.180;9.230;2022-10-26T02:18:33;12.40;99.90
4451;DHT22;2238;50.180;9.230;2022-10-26T02:21:43;12.50;99.90
4451;DHT22;2238;50.180;9.230;2022-10-26T02:24:49;12.60;99.90
4451;DHT22;2238;50.180;9.230;2022-10-26T02:27:55;12.60;99.90
4451;DHT22;2238;50.180;9.230;2022-10-26T02:30:58;12.60;99.90
4451;DHT22;2238;50.180;9.230;2022-10-26T02:34:02;12.60;99.90
4451;DHT22;2238;50.180;9.230;2022-10-26T02:37:05;14.90;99.90
4451;DHT22;2238;50.180;9.230;2022-10-26T02:40:10;14.70;99.90
4451;DHT22;2238;50.180;9.230;2022-10-26T02:43:14;12.60;99.90
4451;DHT22;2238;50.180;9.230;2022-10-26T02:46:22;13.60;99.90
4451;DHT22;2238;50.180;9.230;2022-10-26T02:49:24;13.40;99.90
4451;DHT22;2238;50.180;9.230;2022-10-26T02:53:17;12.80;99.90
4451;DHT22;2238;50.180;9.230;2022-10-26T02:56:20;12.80;99.90
4451;DHT22;2238;50.180;9.230;2022-10-26T02:59:22;12.80;99.90
4451;DHT22;2238;50.180;9.230;2022-10-26T03:02:25;12.80;99.90
4451;DHT22;2238;50.180;9.230;2022-10-26T03:05:29;12.80;99.90
4451;DHT22;2238;50.180;9.230;2022-10-26T03:08:31;14.60;99.90
4451;DHT22;2238;50.180;9.230;2022-10-26T03:11:32;12.80;99.90
4451;DHT22;2238;50.180;9.230;2022-10-26T03:14:32;12.80;99.90
4451;DHT22;2238;50.180;9.230;2022-10-26T03:17:33;14.90;99.90
4451;DHT22;2238;50.180;9.230;2022-10-26T03:20:34;12.90;99.90
4451;DHT22;2238;50.180;9.230;2022-10-26T03:23:35;12.80;99.90
4451;DHT22;2238;50.180;9.230;2022-10-26T03:26:35;13.00;99.90
4451;DHT22;2238;50.180;9.230;2022-10-26T03:29:36;12.80;99.90
4451;DHT22;2238;50.180;9.230;2022-10-26T03:32:37;13.10;99.90
4451;DHT22;2238;50.180;9.230;2022-10-26T03:35:37;12.80;99.90
4451;DHT22;2238;50.180;9.230;2022-10-26T03:38:38;12.80;99.90
4451;DHT22;2238;50.180;9.230;2022-10-26T03:41:39;12.80;99.90
4451;DHT22;2238;50.180;9.230;2022-10-26T03:44:39;12.90;99.90
4451;DHT22;2238;50.180;9.230;2022-10-26T03:47:45;13.00;99.90
4451;DHT22;2238;50.180;9.230;2022-10-26T03:50:45;13.00;99.90
4451;DHT22;2238;50.180;9.230;2022-10-26T03:53:46;14.50;99.90
4451;DHT22;2238;50.180;9.230;2022-10-26T03:56:47;12.80;99.90
4451;DHT22;2238;50.180;9.230;2022-10-26T03:59:48;12.90;99.90
4451;DHT22;2238;50.180;9.230;2022-10-26T04:02:55;15.10;99.90
4451;DHT22;2238;50.180;9.230;2022-10-26T04:05:59;13.00;99.90
4451;DHT22;2238;50.180;9.230;2022-10-26T04:09:00;13.00;99.90
4451;DHT22;2238;50.180;9.230;2022-10-26T04:12:01;12.90;99.90
4451;DHT22;2238;50.180;9.230;2022-10-26T04:15:02;12.90;99.90
4451;DHT22;2238;50.180;9.230;2022-10-26T04:18:03;12.90;99.90
4451;DHT22;2238;50.180;9.230;2022-10-26T04:21:04;12.90;99.90
4451;DHT22;2238;50.180;9.230;2022-10-26T04:24:05;13.10;99.90
4451;DHT22;2238;50.180;9.230;2022-10-26T04:27:05;13.10;99.90
4451;DHT22;2238;50.180;9.230;2022-10-26T04:30:06;13.10;99.90
4451;DHT22;2238;50.180;9.230;2022-10-26T04:33:09;13.10;99.90
4451;DHT22;2238;50.180;9.230;2022-10-26T04:36:10;13.20;99.90
4451;DHT22;2238;50.180;9.230;2022-10-26T04:39:10;13.40;99.90
4451;DHT22;2238;50.180;9.230;2022-10-26T04:42:11;13.40;99.90
4451;DHT22;2238;50.180;9.230;2022-10-26T04:45:13;13.30;99.90
4451;DHT22;2238;50.180;9.230;2022-10-26T04:48:14;13.10;99.90
4451;DHT22;2238;50.180;9.230;2022-10-26T04:51:14;12.90;99.90
4451;DHT22;2238;50.180;9.230;2022-10-26T04:54:15;12.80;99.90
4451;DHT22;2238;50.180;9.230;2022-10-26T04:57:16;12.80;99.90
4451;DHT22;2238;50.180;9.230;2022-10-26T05:00:16;12.90;99.90
4451;DHT22;2238;50.180;9.230;2022-10-26T05:03:17;12.80;99.90
4451;DHT22;2238;50.180;9.230;2022-10-26T05:06:21;12.90;99.90
4451;DHT22;2238;50.180;9.230;2022-10-26T05:09:22;12.90;99.90
4451;DHT22;2238;50.180;9.230;2022-10-26T05:12:22;12.90;99.90
4451;DHT22;2238;50.180;9.230;2022-10-26T05:15:23;12.80;99.90
4451;DHT22;2238;50.180;9.230;2022-10-26T05:18:23;12.70;99.90
4451;DHT22;2238;50.180;9.230;2022-10-26T05:21:25;12.80;99.90
4451;DHT22;2238;50.180;9.230;2022-10-26T05:24:26;12.70;99.90
4451;DHT22;2238;50.180;9.230;2022-10-26T05:27:26;14.70;99.90
4451;DHT22;2238;50.180;9.230;2022-10-26T05:30:28;12.90;99.90
4451;DHT22;2238;50.180;9.230;2022-10-26T05:33:28;12.50;99.90
4451;DHT22;2238;50.180;9.230;2022-10-26T05:36:29;14.60;99.90
4451;DHT22;2238;50.180;9.230;2022-10-26T05:39:30;12.60;99.90
4451;DHT22;2238;50.180;9.230;2022-10-26T05:42:30;13.60;99.90
4451;DHT22;2238;50.180;9.230;2022-10-26T05:45:32;12.50;99.90
4451;DHT22;2238;50.180;9.230;2022-10-26T05:48:32;12.60;99.90
4451;DHT22;2238;50.180;9.230;2022-10-26T05:51:33;13.40;99.90
4451;DHT22;2238;50.180;9.230;2022-10-26T05:54:36;14.40;99.90
4451;DHT22;2238;50.180;9.230;2022-10-26T05:57:37;12.70;99.90
4451;DHT22;2238;50.180;9.230;2022-10-26T06:06:53;12.40;99.90
4451;DHT22;2238;50.180;9.230;2022-10-26T06:09:54;12.30;99.90
4451;DHT22;2238;50.180;9.230;2022-10-26T06:12:55;12.30;99.90
4451;DHT22;2238;50.180;9.230;2022-10-26T06:31:54;12.50;99.90
4451;DHT22;2238;50.180;9.230;2022-10-26T06:35:04;14.00;99.90
4451;DHT22;2238;50.180;9.230;2022-10-26T06:38:16;12.60;99.90
4451;DHT22;2238;50.180;9.230;2022-10-26T06:41:18;12.60;99.90
4451;DHT22;2238;50.180;9.230;2022-10-26T06:44:22;13.10;99.90
4451;DHT22;2238;50.180;9.230;2022-10-26T06:47:37;12.80;99.90
4451;DHT22;2238;50.180;9.230;2022-10-26T06:57:08;12.60;99.90
4451;DHT22;2238;50.180;9.230;2022-10-26T07:00:19;12.60;99.90
4451;DHT22;2238;50.180;9.230;2022-10-26T07:03:20;12.60;99.90
4451;DHT22;2238;50.180;9.230;2022-10-26T07:06:21;12.70;99.90
4451;DHT22;2238;50.180;9.230;2022-10-26T07:09:22;12.70;99.90
4451;DHT22;2238;50.180;9.230;2022-10-26T07:12:22;12.70;99.90
4451;DHT22;2238;50.180;9.230;2022-10-26T07:15:23;12.80;99.90
4451;DHT22;2238;50.180;9.230;2022-10-26T07:18:23;13.10;99.90
4451;DHT22;2238;50.180;9.230;2022-10-26T07:21:24;14.30;99.90
4451;DHT22;2238;50.180;9.230;2022-10-26T07:24:25;13.70;99.90
4451;DHT22;2238;50.180;9.230;2022-10-26T07:27:26;13.40;99.90
4451;DHT22;2238;50.180;9.230;2022-10-26T07:30:27;13.50;99.90
4451;DHT22;2238;50.180;9.230;2022-10-26T07:33:28;13.30;99.90
4451;DHT22;2238;50.180;9.230;2022-10-26T07:42:52;13.10;99.90
4451;DHT22;2238;50.180;9.230;2022-10-26T07:45:56;13.30;99.90
4451;DHT22;2238;50.180;9.230;2022-10-26T07:48:58;14.60;99.90
4451;DHT22;2238;50.180;9.230;2022-10-26T07:51:59;13.40;99.90
4451;DHT22;2238;50.180;9.230;2022-10-26T07:55:00;14.70;99.90
4451;DHT22;2238;50.180;9.230;2022-10-26T07:58:01;14.60;99.90
4451;DHT22;2238;50.180;9.230;2022-10-26T08:01:13;13.80;99.90
4451;DHT22;2238;50.180;9.230;2022-10-26T08:04:14;13.60;99.90
4451;DHT22;2238;50.180;9.230;2022-10-26T08:07:15;13.60;99.90
4451;DHT22;2238;50.180;9.230;2022-10-26T08:10:16;14.00;99.90
4451;DHT22;2238;50.180;9.230;2022-10-26T08:13:17;14.00;99.90
4451;DHT22;2238;50.180;9.230;2022-10-26T08:16:18;13.90;99.90
4451;DHT22;2238;50.180;9.230;2022-10-26T08:19:19;15.70;99.90
4451;DHT22;2238;50.180;9.230;2022-10-26T08:22:19;14.40;99.90
4451;DHT22;2238;50.180;9.230;2022-10-26T08:25:20;14.00;99.90
4451;DHT22;2238;50.180;9.230;2022-10-26T08:28:20;14.10;99.90
4451;DHT22;2238;50.180;9.230;2022-10-26T08:31:21;14.10;99.90
4451;DHT22;2238;50.180;9.230;2022-10-26T08:34:21;16.00;99.90
4451;DHT22;2238;50.180;9.230;2022-10-26T08:37:22;14.50;99.90
4451;DHT22;2238;50.180;9.230;2022-10-26T08:40:34;14.20;99.90
4451;DHT22;2238;50.180;9.230;2022-10-26T08:43:48;14.10;99.90
4451;DHT22;2238;50.180;9.230;2022-10-26T08:46:58;14.20;99.90
4451;DHT22;2238;50.180;9.230;2022-10-26T08:50:29;16.10;99.90
4451;DHT22;2238;50.180;9.230;2022-10-26T08:56:40;14.90;99.90
4451;DHT22;2238;50.180;9.230;2022-10-26T08:59:56;14.60;99.90
4451;DHT22;2238;50.180;9.230;2022-10-26T09:03:00;14.70;99.90
4451;DHT22;2238;50.180;9.230;2022-10-26T09:09:14;14.90;99.90
4451;DHT22;2238;50.180;9.230;2022-10-26T09:25:22;15.50;99.90
4451;DHT22;2238;50.180;9.230;2022-10-26T09:28:23;15.50;99.90
4451;DHT22;2238;50.180;9.230;2022-10-26T09:31:25;16.00;99.90
4451;DHT22;2238;50.180;9.230;2022-10-26T09:34:38;17.60;99.90
4451;DHT22;2238;50.180;9.230;2022-10-26T09:37:46;15.80;99.90
4451;DHT22;2238;50.180;9.230;2022-10-26T09:44:38;15.90;99.90
4451;DHT22;2238;50.180;9.230;2022-10-26T09:47:44;16.80;99.90
4451;DHT22;2238;50.180;9.230;2022-10-26T09:50:47;14.90;99.90
4451;DHT22;2238;50.180;9.230;2022-10-26T09:53:49;16.00;99.90
4451;DHT22;2238;50.180;9.230;2022-10-26T09:56:55;16.70;99.90
4451;DHT22;2238;50.180;9.230;2022-10-26T09:59:57;16.50;99.90
4451;DHT22;2238;50.180;9.230;2022-10-26T10:02:57;17.30;99.90
4451;DHT22;2238;50.180;9.230;2022-10-26T10:06:18;17.80;99.90
4451;DHT22;2238;50.180;9.230;2022-10-26T10:09:21;17.40;99.90
4451;DHT22;2238;50.180;9.230;2022-10-26T10:12:22;16.50;99.90
4451;DHT22;2238;50.180;9.230;2022-10-26T10:15:23;16.60;99.90
4451;DHT22;2238;50.180;9.230;2022-10-26T10:18:24;16.60;99.90
4451;DHT22;2238;50.180;9.230;2022-10-26T10:21:39;16.60;99.90
4451;DHT22;2238;50.180;9.230;2022-10-26T10:24:57;16.50;99.90
4451;DHT22;2238;50.180;9.230;2022-10-26T10:27:58;17.10;99.90
4451;DHT22;2238;50.180;9.230;2022-10-26T10:31:02;17.10;99.90
4451;DHT22;2238;50.180;9.230;2022-10-26T10:53:44;16.50;99.90
4451;DHT22;2238;50.180;9.230;2022-10-26T10:56:47;16.70;99.90
4451;DHT22;2238;50.180;9.230;2022-10-26T11:00:07;16.70;99.90
4451;DHT22;2238;50.180;9.230;2022-10-26T11:03:29;16.90;99.90
4451;DHT22;2238;50.180;9.230;2022-10-26T11:06:35;17.00;99.90
4451;DHT22;2238;50.180;9.230;2022-10-26T11:09:40;17.20;99.90
4451;DHT22;2238;50.180;9.230;2022-10-26T11:12:58;17.20;99.90
4451;DHT22;2238;50.180;9.230;2022-10-26T11:16:03;17.20;99.90
4451;DHT22;2238;50.180;9.230;2022-10-26T11:19:19;17.40;99.90
4451;DHT22;2238;50.180;9.230;2022-10-26T11:22:28;17.50;99.90
4451;DHT22;2238;50.180;9.230;2022-10-26T11:25:34;17.40;99.90
4451;DHT22;2238;50.180;9.230;2022-10-26T11:29:02;17.30;99.90
4451;DHT22;2238;50.180;9.230;2022-10-26T11:32:15;17.20;99.90
4451;DHT22;2238;50.180;9.230;2022-10-26T11:48:27;18.10;99.90
4451;DHT22;2238;50.180;9.230;2022-10-26T11:54:54;18.20;99.90
4451;DHT22;2238;50.180;9.230;2022-10-26T11:57:57;18.00;99.90
4451;DHT22;2238;50.180;9.230;2022-10-26T12:01:04;18.00;99.90
4451;DHT22;2238;50.180;9.230;2022-10-26T12:04:07;18.10;99.90
4451;DHT22;2238;50.180;9.230;2022-10-26T12:07:15;18.20;99.90
4451;DHT22;2238;50.180;9.230;2022-10-26T12:10:27;18.30;99.90
4451;DHT22;2238;50.180;9.230;2022-10-26T12:14:35;18.10;99.90
4451;DHT22;2238;50.180;9.230;2022-10-26T12:17:14;18.00;99.90
4451;DHT22;2238;50.180;9.230;2022-10-26T12:20:49;18.00;99.90
4451;DHT22;2238;50.180;9.230;2022-10-26T12:24:01;17.90;99.90
4451;DHT22;2238;50.180;9.230;2022-10-26T12:27:52;17.90;99.90
4451;DHT22;2238;50.180;9.230;2022-10-26T12:37:38;18.10;99.90
4451;DHT22;2238;50.180;9.230;2022-10-26T12:40:40;18.30;99.90
4451;DHT22;2238;50.180;9.230;2022-10-26T12:43:41;18.40;99.90
4451;DHT22;2238;50.180;9.230;2022-10-26T12:46:42;18.10;99.90
4451;DHT22;2238;50.180;9.230;2022-10-26T12:53:16;18.00;99.90
4451;DHT22;2238;50.180;9.230;2022-10-26T12:56:19;18.00;99.90
4451;DHT22;2238;50.180;9.230;2022-10-26T12:59:40;18.00;99.90
4451;DHT22;2238;50.180;9.230;2022-10-26T13:06:47;18.10;99.90
4451;DHT22;2238;50.180;9.230;2022-10-26T13:13:01;18.10;99.90
4451;DHT22;2238;50.180;9.230;2022-10-26T13:16:02;18.10;99.90
4451;DHT22;2238;50.180;9.230;2022-10-26T13:19:03;18.10;99.90
4451;DHT22;2238;50.180;9.230;2022-10-26T13:22:04;18.10;99.90
4451;DHT22;2238;50.180;9.230;2022-10-26T13:25:05;18.20;99.90
4451;DHT22;2238;50.180;9.230;2022-10-26T13:34:41;18.20;99.90
4451;DHT22;2238;50.180;9.230;2022-10-26T13:37:45;18.20;99.90
4451;DHT22;2238;50.180;9.230;2022-10-26T13:40:47;18.20;99.90
4451;DHT22;2238;50.180;9.230;2022-10-26T13:43:50;18.20;99.90
4451;DHT22;2238;50.180;9.230;2022-10-26T13:46:56;18.20;99.90
4451;DHT22;2238;50.180;9.230;2022-10-26T13:50:03;18.20;99.90
4451;DHT22;2238;50.180;9.230;2022-10-26T13:54:00;18.20;99.90
4451;DHT22;2238;50.180;9.230;2022-10-26T13:59:56;18.00;99.90
4451;DHT22;2238;50.180;9.230;2022-10-26T14:02:58;18.00;99.90
4451;DHT22;2238;50.180;9.230;2022-10-26T14:05:59;18.00;99.90
4451;DHT22;2238;50.180;9.230;2022-10-26T14:09:03;18.00;99.90
4451;DHT22;2238;50.180;9.230;2022-10-26T14:12:04;18.00;99.90
4451;DHT22;2238;50.180;9.230;2022-10-26T14:15:07;18.10;99.90
4451;DHT22;2238;50.180;9.230;2022-10-26T14:18:18;18.10;99.90
4451;DHT22;2238;50.180;9.230;2022-10-26T14:21:21;18.30;99.90
4451;DHT22;2238;50.180;9.230;2022-10-26T14:24:27;18.30;99.90
4451;DHT22;2238;50.180;9.230;2022-10-26T14:27:37;18.30;99.90
4451;DHT22;2238;50.180;9.230;2022-10-26T14:30:38;18.40;99.90
4451;DHT22;2238;50.180;9.230;2022-10-26T14:33:39;18.40;99.90
4451;DHT22;2238;50.180;9.230;2022-10-26T14:37:02;18.20;99.90
4451;DHT22;2238;50.180;9.230;2022-10-26T14:40:04;18.10;99.90
4451;DHT22;2238;50.180;9.230;2022-10-26T14:43:05;18.00;99.90
4451;DHT22;2238;50.180;9.230;2022-10-26T14:46:13;18.20;99.90
4451;DHT22;2238;50.180;9.230;2022-10-26T14:49:22;20.10;99.90
4451;DHT22;2238;50.180;9.230;2022-10-26T14:52:30;18.10;99.90
4451;DHT22;2238;50.180;9.230;2022-10-26T14:55:46;18.00;99.90
4451;DHT22;2238;50.180;9.230;2022-10-26T14:58:47;18.10;99.90
4451;DHT22;2238;50.180;9.230;2022-10-26T15:02:22;18.30;99.90
4451;DHT22;2238;50.180;9.230;2022-10-26T15:05:19;18.30;99.90
4451;DHT22;2238;50.180;9.230;2022-10-26T15:08:39;18.30;99.90
4451;DHT22;2238;50.180;9.230;2022-10-26T15:11:41;18.20;99.90
4451;DHT22;2238;50.180;9.230;2022-10-26T15:14:43;18.10;99.90
4451;DHT22;2238;50.180;9.230;2022-10-26T15:17:51;18.00;99.90
4451;DHT22;2238;50.180;9.230;2022-10-26T15:20:53;17.80;99.90
4451;DHT22;2238;50.180;9.230;2022-10-26T15:23:56;17.60;99.90
4451;DHT22;2238;50.180;9.230;2022-10-26T15:26:57;17.70;99.90
4451;DHT22;2238;50.180;9.230;2022-10-26T15:30:18;17.50;99.90
4451;DHT22;2238;50.180;9.230;2022-10-26T15:33:20;17.30;99.90
4451;DHT22;2238;50.180;9.230;2022-10-26T15:36:25;17.40;99.90
4451;DHT22;2238;50.180;9.230;2022-10-26T15:39:26;17.20;99.90
4451;DHT22;2238;50.180;9.230;2022-10-26T15:42:27;17.20;99.90
4451;DHT22;2238;50.180;9.230;2022-10-26T15:45:44;18.00;99.90
4451;DHT22;2238;50.180;9.230;2022-10-26T15:48:53;16.80;99.90
4451;DHT22;2238;50.180;9.230;2022-10-26T15:51:54;16.90;99.90
4451;DHT22;2238;50.180;9.230;2022-10-26T15:54:55;17.00;99.90
4451;DHT22;2238;50.180;9.230;2022-10-26T15:57:55;16.80;99.90
4451;DHT22;2238;50.180;9.230;2022-10-26T16:00:56;16.60;99.90
4451;DHT22;2238;50.180;9.230;2022-10-26T16:03:57;16.70;99.90
4451;DHT22;2238;50.180;9.230;2022-10-26T16:06:57;16.90;99.90
4451;DHT22;2238;50.180;9.230;2022-10-26T16:10:00;16.20;99.90
4451;DHT22;2238;50.180;9.230;2022-10-26T16:13:01;16.60;99.90
4451;DHT22;2238;50.180;9.230;2022-10-26T16:16:01;17.50;99.90
4451;DHT22;2238;50.180;9.230;2022-10-26T16:19:02;16.30;99.90
4451;DHT22;2238;50.180;9.230;2022-10-26T16:22:03;17.80;99.90
4451;DHT22;2238;50.180;9.230;2022-10-26T16:25:04;16.10;99.90
4451;DHT22;2238;50.180;9.230;2022-10-26T16:28:04;16.30;99.90
4451;DHT22;2238;50.180;9.230;2022-10-26T16:31:08;16.30;99.90
4451;DHT22;2238;50.180;9.230;2022-10-26T16:34:10;16.70;99.90
4451;DHT22;2238;50.180;9.230;2022-10-26T16:37:10;16.30;99.90
4451;DHT22;2238;50.180;9.230;2022-10-26T16:40:11;16.40;99.90
4451;DHT22;2238;50.180;9.230;2022-10-26T16:43:11;15.70;99.90
4451;DHT22;2238;50.180;9.230;2022-10-26T16:46:17;16.90;99.90
4451;DHT22;2238;50.180;9.230;2022-10-26T16:49:18;15.70;99.90
4451;DHT22;2238;50.180;9.230;2022-10-26T16:52:19;15.70;99.90
4451;DHT22;2238;50.180;9.230;2022-10-26T16:55:20;15.90;99.90
4451;DHT22;2238;50.180;9.230;2022-10-26T16:58:23;16.80;99.90
4451;DHT22;2238;50.180;9.230;2022-10-26T17:01:24;16.00;99.90
4451;DHT22;2238;50.180;9.230;2022-10-26T17:04:25;15.50;99.90
4451;DHT22;2238;50.180;9.230;2022-10-26T17:07:25;15.50;99.90
4451;DHT22;2238;50.180;9.230;2022-10-26T17:10:26;17.70;99.90
4451;DHT22;2238;50.180;9.230;2022-10-26T17:13:27;15.50;99.90
4451;DHT22;2238;50.180;9.230;2022-10-26T17:16:28;15.60;99.90
4451;DHT22;2238;50.180;9.230;2022-10-26T17:19:28;16.50;99.90
4451;DHT22;2238;50.180;9.230;2022-10-26T17:22:29;15.80;99.90
4451;DHT22;2238;50.180;9.230;2022-10-26T17:25:33;16.30;99.90
4451;DHT22;2238;50.180;9.230;2022-10-26T17:28:35;17.00;99.90
4451;DHT22;2238;50.180;9.230;2022-10-26T17:31:36;15.70;99.90
4451;DHT22;2238;50.180;9.230;2022-10-26T17:34:36;15.80;99.90
4451;DHT22;2238;50.180;9.230;2022-10-26T17:37:37;15.60;99.90
4451;DHT22;2238;50.180;9.230;2022-10-26T17:40:40;17.80;99.90
4451;DHT22;2238;50.180;9.230;2022-10-26T17:43:41;15.90;99.90
4451;DHT22;2238;50.180;9.230;2022-10-26T17:46:42;15.50;99.90
4451;DHT22;2238;50.180;9.230;2022-10-26T17:49:42;16.70;99.90
4451;DHT22;2238;50.180;9.230;2022-10-26T17:52:43;15.40;99.90
4451;DHT22;2238;50.180;9.230;2022-10-26T17:55:44;16.40;99.90
4451;DHT22;2238;50.180;9.230;2022-10-26T17:58:49;15.50;99.90
4451;DHT22;2238;50.180;9.230;2022-10-26T18:01:50;15.50;99.90
4451;DHT22;2238;50.180;9.230;2022-10-26T18:04:50;15.40;99.90
4451;DHT22;2238;50.180;9.230;2022-10-26T18:07:51;15.40;99.90
4451;DHT22;2238;50.180;9.230;2022-10-26T18:10:53;16.40;99.90
4451;DHT22;2238;50.180;9.230;2022-10-26T18:13:57;16.00;99.90
4451;DHT22;2238;50.180;9.230;2022-10-26T18:16:58;15.30;99.90
4451;DHT22;2238;50.180;9.230;2022-10-26T18:19:58;15.70;99.90
4451;DHT22;2238;50.180;9.230;2022-10-26T18:22:59;16.20;99.90
4451;DHT22;2238;50.180;9.230;2022-10-26T18:26:03;16.50;99.90
4451;DHT22;2238;50.180;9.230;2022-10-26T18:29:04;15.20;99.90
4451;DHT22;2238;50.180;9.230;2022-10-26T18:32:05;15.40;99.90
4451;DHT22;2238;50.180;9.230;2022-10-26T18:35:06;16.00;99.90
4451;DHT22;2238;50.180;9.230;2022-10-26T18:38:07;15.20;99.90
4451;DHT22;2238;50.180;9.230;2022-10-26T18:41:12;15.80;99.90
4451;DHT22;2238;50.180;9.230;2022-10-26T18:44:13;15.40;99.90
4451;DHT22;2238;50.180;9.230;2022-10-26T18:47:14;15.40;99.90
4451;DHT22;2238;50.180;9.230;2022-10-26T18:50:14;16.60;99.90
4451;DHT22;2238;50.180;9.230;2022-10-26T18:53:15;15.20;99.90
4451;DHT22;2238;50.180;9.230;2022-10-26T18:56:18;16.50;99.90
4451;DHT22;2238;50.180;9.230;2022-10-26T18:59:19;15.50;99.90
4451;DHT22;2238;50.180;9.230;2022-10-26T19:02:19;16.30;99.90
4451;DHT22;2238;50.180;9.230;2022-10-26T19:05:21;15.30;99.90
4451;DHT22;2238;50.180;9.230;2022-10-26T19:08:22;16.20;99.90
4451;DHT22;2238;50.180;9.230;2022-10-26T19:11:24;16.70;99.90
4451;DHT22;2238;50.180;9.230;2022-10-26T19:14:25;16.40;99.90
4451;DHT22;2238;50.180;9.230;2022-10-26T19:17:25;17.10;99.90
4451;DHT22;2238;50.180;9.230;2022-10-26T19:20:27;16.80;99.90
4451;DHT22;2238;50.180;9.230;2022-10-26T19:23:36;15.30;99.90
4451;DHT22;2238;50.180;9.230;2022-10-26T19:26:37;16.30;99.90
4451;DHT22;2238;50.180;9.230;2022-10-26T19:29:38;15.20;99.90
4451;DHT22;2238;50.180;9.230;2022-10-26T19:32:38;16.50;99.90
4451;DHT22;2238;50.180;9.230;2022-10-26T19:35:39;16.40;99.90
4451;DHT22;2238;50.180;9.230;2022-10-26T19:38:39;15.10;99.90
4451;DHT22;2238;50.180;9.230;2022-10-26T19:41:40;14.90;99.90
4451;DHT22;2238;50.180;9.230;2022-10-26T19:44:41;16.10;99.90
4451;DHT22;2238;50.180;9.230;2022-10-26T19:47:41;17.00;99.90
4451;DHT22;2238;50.180;9.230;2022-10-26T19:50:49;15.90;99.90
4451;DHT22;2238;50.180;9.230;2022-10-26T19:53:51;16.10;99.90
4451;DHT22;2238;50.180;9.230;2022-10-26T19:56:51;14.90;99.90
4451;DHT22;2238;50.180;9.230;2022-10-26T19:59:52;15.20;99.90
4451;DHT22;2238;50.180;9.230;2022-10-26T20:02:52;16.40;99.90
4451;DHT22;2238;50.180;9.230;2022-10-26T20:05:57;14.60;99.90
4451;DHT22;2238;50.180;9.230;2022-10-26T20:08:58;14.40;99.90
4451;DHT22;2238;50.180;9.230;2022-10-26T20:11:59;14.30;99.90
4451;DHT22;2238;50.180;9.230;2022-10-26T20:15:00;13.20;99.90
4451;DHT22;2238;50.180;9.230;2022-10-26T20:18:00;16.00;99.90
4451;DHT22;2238;50.180;9.230;2022-10-26T20:21:06;15.10;99.90
4451;DHT22;2238;50.180;9.230;2022-10-26T20:24:07;14.40;99.90
4451;DHT22;2238;50.180;9.230;2022-10-26T20:27:08;14.60;99.90
4451;DHT22;2238;50.180;9.230;2022-10-26T20:30:09;16.90;99.90
4451;DHT22;2238;50.180;9.230;2022-10-26T20:33:10;14.60;99.90
4451;DHT22;2238;50.180;9.230;2022-10-26T20:36:11;15.50;99.90
4451;DHT22;2238;50.180;9.230;2022-10-26T20:39:12;16.60;99.90
4451;DHT22;2238;50.180;9.230;2022-10-26T20:42:21;14.30;99.90
4451;DHT22;2238;50.180;9.230;2022-10-26T20:45:32;14.10;99.90
4451;DHT22;2238;50.180;9.230;2022-10-26T20:48:33;14.00;99.90
4451;DHT22;2238;50.180;9.230;2022-10-26T20:51:39;13.90;99.90
4451;DHT22;2238;50.180;9.230;2022-10-26T20:54:53;13.80;99.90
4451;DHT22;2238;50.180;9.230;2022-10-26T20:58:01;14.10;99.90
4451;DHT22;2238;50.180;9.230;2022-10-26T21:01:05;14.00;99.90
4451;DHT22;2238;50.180;9.230;2022-10-26T21:04:05;13.90;99.90
4451;DHT22;2238;50.180;9.230;2022-10-26T21:07:08;13.70;99.90
4451;DHT22;2238;50.180;9.230;2022-10-26T21:10:08;13.70;99.90
4451;DHT22;2238;50.180;9.230;2022-10-26T21:13:10;13.60;99.90
4451;DHT22;2238;50.180;9.230;2022-10-26T21:16:11;15.80;99.90
4451;DHT22;2238;50.180;9.230;2022-10-26T21:19:12;13.60;99.90
4451;DHT22;2238;50.180;9.230;2022-10-26T21:22:13;13.90;99.90
4451;DHT22;2238;50.180;9.230;2022-10-26T21:25:15;13.90;99.90
4451;DHT22;2238;50.180;9.230;2022-10-26T21:28:15;13.60;99.90
4451;DHT22;2238;50.180;9.230;2022-10-26T21:31:17;15.80;99.90
4451;DHT22;2238;50.180;9.230;2022-10-26T21:34:19;14.30;99.90
4451;DHT22;2238;50.180;9.230;2022-10-26T21:37:20;15.40;99.90
4451;DHT22;2238;50.180;9.230;2022-10-26T21:40:20;14.30;99.90
4451;DHT22;2238;50.180;9.230;2022-10-26T21:43:21;13.40;99.90
4451;DHT22;2238;50.180;9.230;2022-10-26T21:46:21;13.40;99.90
4451;DHT22;2238;50.180;9.230;2022-10-26T21:49:22;13.30;99.90
4451;DHT22;2238;50.180;9.230;2022-10-26T21:52:23;13.30;99.90
4451;DHT22;2238;50.180;9.230;2022-10-26T21:55:23;14.60;99.90
4451;DHT22;2238;50.180;9.230;2022-10-26T21:58:24;14.50;99.90
4451;DHT22;2238;50.180;9.230;2022-10-26T22:01:24;13.30;99.90
4451;DHT22;2238;50.180;9.230;2022-10-26T22:04:25;13.10;99.90
4451;DHT22;2238;50.180;9.230;2022-10-26T22:07:26;14.00;99.90
4451;DHT22;2238;50.180;9.230;2022-10-26T22:10:26;13.70;99.90
4451;DHT22;2238;50.180;9.230;2022-10-26T22:13:27;14.70;99.90